createdAt,value
2022-12-28T00:00:17.099Z,5.30
2022-12-28T00:02:46.197Z,5.55
2022-12-28T00:05:15.182Z,5.85
2022-12-28T00:07:43.711Z,5.78
2022-12-28T00:10:12.430Z,5.53
2022-12-28T00:12:41.057Z,5.55
2022-12-28T00:15:10.298Z,5.97
2022-12-28T00:17:40.281Z,5.50
2022-12-28T00:20:10.264Z,5.15
2022-12-28T00:22:38.840Z,5.07
2022-12-28T00:25:09.142Z,5.10
2022-12-28T00:27:37.971Z,5.07
2022-12-28T00:30:08.192Z,5.35
2022-12-28T00:32:36.775Z,5.47
2022-12-28T00:35:08.087Z,5.45
2022-12-28T00:37:36.755Z,5.32
2022-12-28T00:40:06.465Z,5.40
2022-12-28T00:42:35.028Z,5.38
2022-12-28T00:45:03.650Z,4.88
2022-12-28T00:47:32.485Z,4.57
2022-12-28T00:50:01.072Z,5.05
2022-12-28T00:52:31.036Z,9.25
2022-12-28T00:55:00.148Z,8.70
2022-12-28T00:57:28.865Z,8.93
2022-12-28T00:59:57.425Z,8.10
2022-12-28T01:02:26.029Z,7.50
2022-12-28T01:04:54.610Z,7.53
2022-12-28T01:07:23.148Z,6.55
2022-12-28T01:09:53.306Z,6.85
2022-12-28T01:12:21.863Z,7.07
2022-12-28T01:14:50.791Z,6.68
2022-12-28T01:17:19.434Z,6.63
2022-12-28T01:19:53.761Z,6.97
2022-12-28T01:22:22.917Z,6.43
2022-12-28T01:24:52.897Z,6.78
2022-12-28T01:27:24.416Z,6.20
2022-12-28T01:29:53.112Z,6.97
2022-12-28T01:32:21.705Z,6.85
2022-12-28T01:34:50.309Z,6.25
2022-12-28T01:37:19.285Z,6.80
2022-12-28T01:39:47.908Z,5.90
2022-12-28T01:42:19.637Z,6.85
2022-12-28T01:44:48.863Z,6.53
2022-12-28T01:47:23.514Z,6.07
2022-12-28T01:50:00.248Z,5.88
2022-12-28T01:52:32.693Z,6.45
2022-12-28T01:55:06.251Z,5.93
2022-12-28T01:57:38.980Z,6.00
2022-12-28T02:00:10.993Z,6.78
2022-12-28T02:02:39.625Z,5.95
2022-12-28T02:05:09.268Z,5.65
2022-12-28T02:07:41.306Z,6.05
2022-12-28T02:10:41.423Z,5.38
2022-12-28T02:13:00.345Z,5.80
2022-12-28T02:15:29.099Z,5.72
2022-12-28T02:17:57.780Z,5.60
2022-12-28T02:20:28.789Z,5.30
2022-12-28T02:23:39.698Z,5.88
2022-12-28T02:26:45.038Z,5.43
2022-12-28T02:30:03.419Z,5.53
2022-12-28T02:32:50.191Z,5.15
2022-12-28T02:35:22.874Z,5.97
2022-12-28T02:37:54.245Z,5.00
2022-12-28T02:40:25.249Z,5.13
2022-12-28T02:42:54.525Z,4.85
2022-12-28T02:45:53.707Z,5.68
2022-12-28T02:48:40.189Z,5.85
2022-12-28T02:51:56.022Z,5.57
2022-12-28T02:55:04.132Z,5.75
2022-12-28T02:57:51.478Z,5.32
2022-12-28T03:00:21.355Z,5.07
2022-12-28T03:03:05.937Z,4.93
2022-12-28T03:05:55.370Z,5.15
2022-12-28T03:08:31.753Z,5.38
2022-12-28T03:11:05.086Z,5.40
2022-12-28T03:13:45.000Z,5.32
2022-12-28T03:16:18.938Z,4.85
2022-12-28T03:19:08.794Z,5.47
2022-12-28T03:21:54.831Z,5.45
2022-12-28T03:24:40.857Z,4.95
2022-12-28T03:27:29.517Z,5.10
2022-12-28T03:30:20.153Z,4.68
2022-12-28T03:32:48.764Z,5.10
2022-12-28T03:35:19.628Z,4.85
2022-12-28T03:37:53.767Z,5.05
2022-12-28T03:40:29.572Z,5.30
2022-12-28T03:43:18.977Z,5.35
2022-12-28T03:45:52.547Z,4.90
2022-12-28T03:48:21.100Z,5.13
2022-12-28T03:50:51.693Z,4.80
2022-12-28T03:53:23.840Z,5.32
2022-12-28T03:55:52.491Z,4.85
2022-12-28T03:58:21.197Z,4.43
2022-12-28T04:00:49.791Z,5.38
2022-12-28T04:03:18.526Z,4.72
2022-12-28T04:05:47.233Z,4.95
2022-12-28T04:08:17.175Z,4.80
2022-12-28T04:10:45.854Z,4.28
2022-12-28T04:13:17.272Z,4.82
2022-12-28T04:15:45.916Z,5.00
2022-12-28T04:18:14.694Z,4.60
2022-12-28T04:20:43.210Z,4.43
2022-12-28T04:23:11.958Z,4.70
2022-12-28T04:25:41.912Z,4.32
2022-12-28T04:28:10.713Z,4.90
2022-12-28T04:30:39.413Z,4.97
2022-12-28T04:33:08.461Z,4.88
2022-12-28T04:35:36.960Z,4.80
2022-12-28T04:38:05.807Z,4.82
2022-12-28T04:40:34.355Z,4.70
2022-12-28T04:43:04.600Z,4.47
2022-12-28T04:45:33.239Z,4.88
2022-12-28T04:48:02.098Z,4.70
2022-12-28T04:50:30.813Z,4.13
2022-12-28T04:53:00.195Z,4.20
2022-12-28T04:55:31.873Z,4.70
2022-12-28T04:58:03.698Z,4.20
2022-12-28T05:00:32.452Z,4.03
2022-12-28T05:03:01.341Z,4.50
2022-12-28T05:05:30.237Z,4.22
2022-12-28T05:08:01.443Z,3.95
2022-12-28T05:10:30.174Z,4.20
2022-12-28T05:12:58.948Z,4.10
2022-12-28T05:15:29.057Z,3.90
2022-12-28T05:17:57.989Z,4.35
2022-12-28T05:20:26.588Z,4.35
2022-12-28T05:22:55.150Z,3.80
2022-12-28T05:25:24.052Z,4.35
2022-12-28T05:27:52.590Z,4.35
2022-12-28T05:30:21.273Z,3.75
2022-12-28T05:32:51.324Z,4.00
2022-12-28T05:35:20.033Z,3.72
2022-12-28T05:37:48.568Z,3.75
2022-12-28T05:40:17.617Z,3.80
2022-12-28T05:42:51.234Z,3.95
2022-12-28T05:45:20.583Z,3.88
2022-12-28T05:47:50.460Z,3.65
2022-12-28T05:50:19.342Z,4.07
2022-12-28T05:52:48.058Z,4.03
2022-12-28T05:55:16.788Z,3.83
2022-12-28T05:57:45.387Z,3.90
2022-12-28T06:00:15.693Z,3.85
2022-12-28T06:02:44.485Z,3.38
2022-12-28T06:05:15.134Z,3.63
2022-12-28T06:07:43.980Z,3.55
2022-12-28T06:10:12.814Z,3.40
2022-12-28T06:12:42.150Z,3.33
2022-12-28T06:15:12.084Z,4.07
2022-12-28T06:17:40.640Z,3.33
2022-12-28T06:20:10.924Z,3.40
2022-12-28T06:22:40.966Z,3.80
2022-12-28T06:25:11.384Z,3.75
2022-12-28T06:27:40.199Z,3.53
2022-12-28T06:30:11.369Z,3.70
2022-12-28T06:32:39.951Z,3.60
2022-12-28T06:35:09.717Z,3.80
2022-12-28T06:37:38.257Z,3.38
2022-12-28T06:40:10.174Z,3.60
2022-12-28T06:42:38.781Z,3.60
2022-12-28T06:45:09.757Z,3.72
2022-12-28T06:47:38.341Z,3.20
2022-12-28T06:50:08.043Z,3.92
2022-12-28T06:52:36.965Z,3.30
2022-12-28T06:55:07.831Z,3.40
2022-12-28T06:57:36.463Z,3.80
2022-12-28T07:00:06.968Z,3.22
2022-12-28T07:02:35.798Z,3.33
2022-12-28T07:05:04.737Z,3.58
2022-12-28T07:07:33.514Z,3.53
2022-12-28T07:10:02.107Z,3.00
2022-12-28T07:12:32.260Z,3.35
2022-12-28T07:15:00.823Z,3.58
2022-12-28T07:17:30.075Z,3.17
2022-12-28T07:19:58.891Z,3.72
2022-12-28T07:22:27.682Z,3.05
2022-12-28T07:24:56.315Z,3.17
2022-12-28T07:27:25.123Z,3.15
2022-12-28T07:29:55.071Z,3.55
2022-12-28T07:32:23.833Z,3.22
2022-12-28T07:34:52.546Z,3.30
2022-12-28T07:37:21.322Z,3.25
2022-12-28T07:39:49.922Z,3.13
2022-12-28T07:42:18.662Z,3.03
2022-12-28T07:44:49.231Z,3.45
2022-12-28T07:47:19.651Z,3.40
2022-12-28T07:49:48.352Z,3.38
2022-12-28T07:52:17.142Z,3.35
2022-12-28T07:54:45.817Z,3.30
2022-12-28T07:57:14.621Z,3.08
2022-12-28T07:59:43.195Z,3.22
2022-12-28T08:02:12.187Z,3.30
2022-12-28T08:04:45.121Z,3.17
2022-12-28T08:07:16.114Z,3.45
2022-12-28T08:09:44.690Z,3.40
2022-12-28T08:12:13.345Z,3.72
2022-12-28T08:14:41.988Z,4.10
2022-12-28T08:17:12.814Z,4.10
2022-12-28T08:19:46.112Z,3.45
2022-12-28T08:22:14.989Z,3.28
2022-12-28T08:24:43.674Z,3.70
2022-12-28T08:27:12.314Z,3.42
2022-12-28T08:29:40.973Z,3.50
2022-12-28T08:32:09.552Z,3.53
2022-12-28T08:34:38.110Z,3.72
2022-12-28T08:37:08.046Z,3.40
2022-12-28T08:39:36.602Z,4.03
2022-12-28T08:42:05.394Z,3.40
2022-12-28T08:44:34.086Z,3.63
2022-12-28T08:47:02.676Z,3.40
2022-12-28T08:49:31.254Z,4.05
2022-12-28T08:52:00.035Z,3.05
2022-12-28T08:54:29.967Z,3.42
2022-12-28T08:56:58.527Z,3.90
2022-12-28T08:59:27.225Z,3.25
2022-12-28T09:01:55.848Z,3.33
2022-12-28T09:04:24.637Z,3.60
2022-12-28T09:06:53.272Z,3.53
2022-12-28T09:09:22.182Z,3.60
2022-12-28T09:11:52.077Z,3.30
2022-12-28T09:14:24.196Z,3.72
2022-12-28T09:16:53.456Z,3.30
2022-12-28T09:19:22.200Z,4.03
2022-12-28T09:21:52.726Z,3.30
2022-12-28T09:24:21.989Z,3.55
2022-12-28T09:26:53.167Z,3.30
2022-12-28T09:29:21.870Z,3.65
2022-12-28T09:31:50.416Z,3.28
2022-12-28T09:34:36.804Z,3.58
2022-12-28T09:37:06.531Z,3.33
2022-12-28T09:39:35.259Z,3.45
2022-12-28T09:42:07.995Z,3.65
2022-12-28T09:45:01.842Z,3.85
2022-12-28T09:47:35.371Z,3.85
2022-12-28T09:50:25.810Z,4.10
2022-12-28T09:53:04.613Z,8.30
2022-12-28T09:55:33.458Z,5.80
2022-12-28T09:58:03.405Z,6.95
2022-12-28T10:00:38.879Z,6.78
2022-12-28T10:03:15.906Z,5.88
2022-12-28T10:05:44.655Z,5.18
2022-12-28T10:08:15.718Z,5.63
2022-12-28T10:10:48.662Z,5.32
2022-12-28T10:16:16.828Z,5.75
2022-12-28T10:18:45.484Z,5.78
2022-12-28T10:21:14.298Z,5.75
2022-12-28T10:24:04.487Z,6.28
2022-12-28T10:26:31.642Z,5.05
2022-12-28T10:29:01.841Z,5.20
2022-12-28T10:31:35.008Z,5.47
2022-12-28T10:34:03.898Z,4.63
2022-12-28T10:36:34.959Z,4.80
2022-12-28T10:39:04.914Z,5.60
2022-12-28T10:41:37.066Z,4.40
2022-12-28T10:44:38.891Z,4.80
2022-12-28T10:47:17.832Z,5.00
2022-12-28T10:50:18.501Z,4.43
2022-12-28T10:52:40.519Z,4.70
2022-12-28T10:55:28.188Z,5.18
2022-12-28T10:58:28.173Z,5.25
2022-12-28T11:00:56.111Z,4.50
2022-12-28T11:03:29.150Z,4.85
2022-12-28T11:06:15.871Z,4.40
2022-12-28T11:08:47.887Z,4.22
2022-12-28T11:11:21.806Z,4.30
2022-12-28T11:13:54.872Z,4.45
2022-12-28T11:16:24.972Z,4.85
2022-12-28T11:18:53.937Z,4.93
2022-12-28T11:21:23.021Z,4.28
2022-12-28T11:23:52.514Z,5.15
2022-12-28T11:26:21.169Z,4.50
2022-12-28T11:28:51.661Z,4.80
2022-12-28T11:31:27.767Z,5.00
2022-12-28T11:33:58.144Z,4.65
2022-12-28T11:36:27.762Z,4.60
2022-12-28T11:38:57.436Z,4.55
2022-12-28T11:41:56.260Z,4.40
2022-12-28T11:44:53.464Z,4.40
2022-12-28T11:47:34.194Z,4.80
2022-12-28T11:50:51.283Z,4.82
2022-12-28T11:53:25.075Z,4.35
2022-12-28T11:56:07.741Z,4.60
2022-12-28T11:59:06.037Z,4.60
2022-12-28T12:01:53.822Z,4.63
2022-12-28T12:04:38.824Z,4.45
2022-12-28T12:07:49.986Z,3.72
2022-12-28T12:10:36.927Z,4.70
2022-12-28T12:13:44.315Z,4.63
2022-12-28T12:16:42.541Z,4.63
2022-12-28T12:19:19.182Z,4.82
2022-12-28T12:22:01.493Z,4.35
2022-12-28T12:24:33.732Z,4.13
2022-12-28T12:27:10.320Z,4.75
2022-12-28T12:29:42.446Z,3.88
2022-12-28T12:32:16.196Z,4.05
2022-12-28T12:34:46.813Z,4.00
2022-12-28T12:37:37.756Z,4.30
2022-12-28T12:40:46.482Z,4.03
2022-12-28T12:43:34.247Z,3.78
2022-12-28T12:46:20.851Z,3.90
2022-12-28T12:49:27.847Z,3.72
2022-12-28T12:52:00.260Z,3.90
2022-12-28T12:54:38.357Z,3.70
2022-12-28T12:57:12.377Z,4.63
2022-12-28T13:00:03.680Z,4.47
2022-12-28T13:03:18.965Z,4.10
2022-12-28T13:05:52.586Z,4.22
2022-12-28T13:08:25.624Z,4.53
2022-12-28T13:10:55.719Z,4.20
2022-12-28T13:13:30.678Z,4.05
2022-12-28T13:16:02.822Z,4.47
2022-12-28T13:18:44.719Z,4.20
2022-12-28T13:21:20.454Z,4.25
2022-12-28T13:23:49.294Z,4.15
2022-12-28T13:26:23.087Z,4.35
2022-12-28T13:28:53.567Z,3.95
2022-12-28T13:31:23.427Z,4.22
2022-12-28T13:33:58.845Z,4.20
2022-12-28T13:36:27.730Z,4.10
2022-12-28T13:39:12.063Z,4.15
2022-12-28T13:41:48.953Z,3.65
2022-12-28T13:44:30.548Z,4.05
2022-12-28T13:47:04.005Z,4.10
2022-12-28T13:49:36.720Z,3.95
2022-12-28T13:52:10.320Z,3.35
2022-12-28T13:54:39.140Z,4.13
2022-12-28T13:57:44.596Z,3.72
2022-12-28T13:59:57.759Z,3.95
2022-12-28T14:02:27.498Z,4.07
2022-12-28T14:04:56.610Z,3.90
2022-12-28T14:07:27.482Z,4.00
2022-12-28T14:09:56.106Z,4.03
2022-12-28T14:12:26.103Z,4.25
2022-12-28T14:14:54.713Z,4.32
2022-12-28T14:17:23.432Z,3.60
2022-12-28T14:19:52.876Z,4.07
2022-12-28T14:22:32.820Z,3.78
2022-12-28T14:25:07.427Z,4.22
2022-12-28T14:27:39.769Z,3.47
2022-12-28T14:30:22.396Z,3.85
2022-12-28T14:32:50.959Z,4.03
2022-12-28T14:35:21.666Z,3.92
2022-12-28T14:37:54.139Z,4.07
2022-12-28T14:40:29.886Z,3.72
2022-12-28T14:43:00.349Z,3.90
2022-12-28T14:46:05.489Z,4.00
2022-12-28T14:48:35.388Z,3.85
2022-12-28T14:51:05.742Z,3.70
2022-12-28T14:53:34.540Z,4.00
2022-12-28T14:56:06.028Z,3.45
2022-12-28T14:58:50.997Z,3.80
2022-12-28T15:01:20.985Z,3.38
2022-12-28T15:03:52.283Z,3.28
2022-12-28T15:06:21.175Z,4.05
2022-12-28T15:08:50.942Z,5.18
2022-12-28T15:11:19.789Z,4.70
2022-12-28T15:13:49.965Z,5.40
2022-12-28T15:16:19.415Z,6.88
2022-12-28T15:18:48.056Z,5.00
2022-12-28T15:21:18.635Z,4.90
2022-12-28T15:23:50.218Z,5.88
2022-12-28T15:26:19.080Z,4.90
2022-12-28T15:28:49.248Z,5.82
2022-12-28T15:31:18.977Z,5.07
2022-12-28T15:33:47.669Z,5.22
2022-12-28T15:36:18.172Z,5.05
2022-12-28T15:38:47.052Z,4.65
2022-12-28T15:41:33.118Z,5.20
2022-12-28T15:44:03.100Z,5.65
2022-12-28T15:46:31.828Z,5.00
2022-12-28T15:49:02.647Z,5.45
2022-12-28T15:51:31.265Z,5.60
2022-12-28T15:53:59.978Z,5.00
2022-12-28T15:56:30.150Z,4.90
2022-12-28T15:59:00.248Z,4.82
2022-12-28T16:01:31.407Z,4.38
2022-12-28T16:04:02.452Z,4.57
2022-12-28T16:06:34.175Z,4.82
2022-12-28T16:09:04.934Z,4.63
2022-12-28T16:11:34.245Z,4.68
2022-12-28T16:14:04.924Z,4.63
2022-12-28T16:16:37.025Z,4.95
2022-12-28T16:19:06.995Z,4.82
2022-12-28T16:21:36.148Z,5.68
2022-12-28T16:24:04.875Z,4.50
2022-12-28T16:26:33.534Z,4.55
2022-12-28T16:29:02.549Z,5.03
2022-12-28T16:31:32.142Z,4.47
2022-12-28T16:34:03.332Z,4.63
2022-12-28T16:36:31.998Z,4.50
2022-12-28T16:39:00.619Z,4.35
2022-12-28T16:41:36.309Z,4.63
2022-12-28T16:44:07.740Z,4.50
2022-12-28T16:46:36.384Z,4.25
2022-12-28T16:49:06.432Z,4.28
2022-12-28T16:51:35.079Z,4.85
2022-12-28T16:54:03.798Z,4.43
2022-12-28T16:56:32.407Z,5.07
2022-12-28T16:59:01.452Z,4.60
2022-12-28T17:01:30.073Z,4.82
2022-12-28T17:04:04.038Z,4.10
2022-12-28T17:06:34.569Z,4.32
2022-12-28T17:09:03.142Z,4.40
2022-12-28T17:11:32.131Z,4.50
2022-12-28T17:14:05.213Z,5.05
2022-12-28T17:16:33.946Z,4.65
2022-12-28T17:19:02.969Z,4.43
2022-12-28T17:21:33.155Z,4.63
2022-12-28T17:24:01.767Z,4.35
2022-12-28T17:26:30.581Z,4.45
2022-12-28T17:28:59.403Z,4.50
2022-12-28T17:31:28.082Z,4.97
2022-12-28T17:33:58.850Z,4.80
2022-12-28T17:36:27.618Z,4.95
2022-12-28T17:38:57.694Z,4.55
2022-12-28T17:41:27.680Z,5.13
2022-12-28T17:43:57.206Z,4.53
2022-12-28T17:46:26.845Z,4.53
2022-12-28T17:48:55.665Z,5.00
2022-12-28T17:51:25.636Z,5.10
2022-12-28T17:53:57.014Z,4.45
2022-12-28T17:56:25.867Z,4.70
2022-12-28T17:58:55.862Z,4.57
2022-12-28T18:01:24.928Z,4.95
2022-12-28T18:03:53.739Z,4.60
2022-12-28T18:06:22.455Z,4.75
2022-12-28T18:08:51.108Z,4.75
2022-12-28T18:11:21.454Z,4.40
2022-12-28T18:13:50.174Z,4.20
2022-12-28T18:16:21.381Z,4.43
2022-12-28T18:18:50.070Z,4.30
2022-12-28T18:21:21.969Z,4.35
2022-12-28T18:23:51.892Z,4.65
2022-12-28T18:26:23.176Z,4.13
2022-12-28T18:28:51.785Z,4.35
2022-12-28T18:31:21.067Z,4.30
2022-12-28T18:33:49.780Z,3.85
2022-12-28T18:36:18.789Z,4.10
2022-12-28T18:38:47.655Z,4.45
2022-12-28T18:41:18.888Z,4.88
2022-12-28T18:43:49.313Z,4.80
2022-12-28T18:46:18.129Z,4.60
2022-12-28T18:48:46.685Z,4.68
2022-12-28T18:51:17.302Z,4.25
2022-12-28T18:53:46.903Z,4.72
2022-12-28T18:56:16.494Z,4.95
2022-12-28T18:58:45.192Z,4.80
2022-12-28T19:01:55.990Z,4.97
2022-12-28T19:04:07.858Z,5.05
2022-12-28T19:06:36.800Z,4.85
2022-12-28T19:09:06.189Z,5.20
2022-12-28T19:11:34.964Z,4.78
2022-12-28T19:14:03.550Z,4.80
2022-12-28T19:16:33.688Z,4.80
2022-12-28T19:19:02.419Z,4.10
2022-12-28T19:21:32.825Z,4.40
2022-12-28T19:24:03.709Z,4.78
2022-12-28T19:26:32.997Z,4.60
2022-12-28T19:29:02.926Z,4.72
2022-12-28T19:31:33.949Z,4.55
2022-12-28T19:34:02.670Z,4.57
2022-12-28T19:36:31.370Z,4.88
2022-12-28T19:39:00.170Z,4.57
2022-12-28T19:41:28.867Z,4.45
2022-12-28T19:43:57.500Z,4.57
2022-12-28T19:46:31.475Z,5.03
2022-12-28T19:49:02.877Z,4.05
2022-12-28T19:51:32.924Z,4.65
2022-12-28T19:54:01.734Z,4.25
2022-12-28T19:56:30.379Z,4.88
2022-12-28T19:59:05.526Z,4.20
2022-12-28T20:01:36.350Z,4.50
2022-12-28T20:04:13.063Z,4.40
2022-12-28T20:06:43.594Z,4.07
2022-12-28T20:09:12.848Z,4.68
2022-12-28T20:11:41.919Z,4.60
2022-12-28T20:14:13.016Z,4.05
2022-12-28T20:16:42.511Z,4.28
2022-12-28T20:19:13.280Z,4.70
2022-12-28T20:21:45.146Z,4.38
2022-12-28T20:24:14.918Z,4.35
2022-12-28T20:26:43.622Z,4.00
2022-12-28T20:29:13.554Z,3.92
2022-12-28T20:31:42.313Z,4.28
2022-12-28T20:34:12.471Z,4.32
2022-12-28T20:36:41.002Z,4.43
2022-12-28T20:39:09.538Z,4.40
2022-12-28T20:41:55.372Z,4.95
2022-12-28T20:44:26.018Z,4.25
2022-12-28T20:46:55.117Z,3.83
2022-12-28T20:49:25.854Z,4.18
2022-12-28T20:51:54.814Z,4.70
2022-12-28T20:54:23.450Z,4.15
2022-12-28T20:56:55.223Z,4.00
2022-12-28T20:59:26.024Z,4.20
2022-12-28T21:01:55.235Z,4.13
2022-12-28T21:04:26.252Z,3.92
2022-12-28T21:06:55.223Z,4.45
2022-12-28T21:09:23.931Z,4.50
2022-12-28T21:11:52.524Z,3.70
2022-12-28T21:14:21.618Z,3.83
2022-12-28T21:16:50.930Z,4.00
2022-12-28T21:19:20.175Z,4.30
2022-12-28T21:21:50.342Z,4.15
2022-12-28T21:24:19.500Z,4.00
2022-12-28T21:26:48.063Z,3.80
2022-12-28T21:29:22.010Z,4.20
2022-12-28T21:31:54.243Z,4.55
2022-12-28T21:34:23.151Z,4.30
2022-12-28T21:36:53.119Z,3.65
2022-12-28T21:39:22.063Z,3.75
2022-12-28T21:41:51.054Z,3.58
2022-12-28T21:44:21.553Z,3.95
2022-12-28T21:46:51.409Z,4.00
2022-12-28T21:49:20.234Z,4.00
2022-12-28T21:51:49.164Z,3.65
2022-12-28T21:54:20.610Z,4.28
2022-12-28T21:56:52.773Z,4.50
2022-12-28T21:59:21.578Z,4.10
2022-12-28T22:02:07.528Z,4.20
2022-12-28T22:05:00.193Z,3.97
2022-12-28T22:07:31.237Z,4.15
2022-12-28T22:10:18.531Z,3.55
2022-12-28T22:12:47.315Z,3.70
2022-12-28T22:15:34.661Z,4.03
2022-12-28T22:18:04.968Z,3.45
2022-12-28T22:20:34.602Z,3.53
2022-12-28T22:23:03.392Z,3.78
2022-12-28T22:25:33.657Z,3.70
2022-12-28T22:28:03.839Z,4.07
2022-12-28T22:30:34.991Z,3.80
2022-12-28T22:33:03.554Z,3.88
2022-12-28T22:35:32.153Z,3.60
2022-12-28T22:38:00.712Z,3.67
2022-12-28T22:40:29.279Z,3.40
2022-12-28T22:42:59.542Z,3.80
2022-12-28T22:45:28.429Z,3.67
2022-12-28T22:47:59.610Z,3.45
2022-12-28T22:50:28.537Z,3.90
2022-12-28T22:52:57.454Z,3.63
2022-12-28T22:55:26.001Z,3.80
2022-12-28T22:57:54.894Z,3.78
2022-12-28T23:00:24.974Z,3.72
2022-12-28T23:02:53.915Z,3.70
2022-12-28T23:05:22.842Z,3.30
2022-12-28T23:07:51.472Z,3.22
2022-12-28T23:10:20.105Z,3.65
2022-12-28T23:12:48.800Z,3.40
2022-12-28T23:15:18.729Z,3.75
2022-12-28T23:17:49.804Z,3.47
2022-12-28T23:20:36.366Z,3.58
2022-12-28T23:23:22.728Z,3.33
2022-12-28T23:26:09.014Z,3.50
2022-12-28T23:28:37.542Z,3.22
2022-12-28T23:31:07.515Z,3.80
2022-12-28T23:33:37.917Z,3.17
2022-12-28T23:36:07.365Z,3.47
2022-12-28T23:38:36.025Z,3.28
2022-12-28T23:41:24.862Z,3.13
2022-12-28T23:43:53.568Z,3.75
2022-12-28T23:46:22.097Z,3.42
2022-12-28T23:48:52.011Z,3.40
2022-12-28T23:51:20.682Z,3.30
2022-12-28T23:53:49.221Z,3.40
2022-12-28T23:56:17.731Z,3.35
2022-12-28T23:58:46.289Z,3.35
